Map

Track Data

SID SEASON NUMBER BASIN SUBBASIN NAME ISO_TIME NATURE LAT LON WMO_WIND WMO_PRES WMO_AGENCY TRACK_TYPE DIST2LAND LANDFALL IFLAG USA_AGENCY USA_ATCF_ID USA_LAT USA_LON USA_RECORD USA_STATUS USA_WIND USA_PRES USA_SSHS USA_R34_NE USA_R34_SE USA_R34_SW USA_R34_NW USA_R50_NE USA_R50_SE USA_R50_SW USA_R50_NW USA_R64_NE USA_R64_SE USA_R64_SW USA_R64_NW USA_POCI USA_ROCI USA_RMW USA_EYE TOKYO_LAT TOKYO_LON TOKYO_GRADE TOKYO_WIND TOKYO_PRES TOKYO_R50_DIR TOKYO_R50_LONG TOKYO_R50_SHORT TOKYO_R30_DIR TOKYO_R30_LONG TOKYO_R30_SHORT TOKYO_LAND CMA_LAT CMA_LON CMA_CAT CMA_WIND CMA_PRES HKO_LAT HKO_LON HKO_CAT HKO_WIND HKO_PRES NEWDELHI_LAT NEWDELHI_LON NEWDELHI_GRADE NEWDELHI_WIND NEWDELHI_PRES NEWDELHI_CI NEWDELHI_DP NEWDELHI_POCI REUNION_LAT REUNION_LON REUNION_TYPE REUNION_WIND REUNION_PRES REUNION_TNUM REUNION_CI REUNION_RMW REUNION_R34_NE REUNION_R34_SE REUNION_R34_SW REUNION_R34_NW REUNION_R50_NE REUNION_R50_SE REUNION_R50_SW REUNION_R50_NW REUNION_R64_NE REUNION_R64_SE REUNION_R64_SW REUNION_R64_NW BOM_LAT BOM_LON BOM_TYPE BOM_WIND BOM_PRES BOM_TNUM BOM_CI BOM_RMW BOM_R34_NE BOM_R34_SE BOM_R34_SW BOM_R34_NW BOM_R50_NE BOM_R50_SE BOM_R50_SW BOM_R50_NW BOM_R64_NE BOM_R64_SE BOM_R64_SW BOM_R64_NW BOM_ROCI BOM_POCI BOM_EYE BOM_POS_METHOD BOM_PRES_METHOD NADI_LAT NADI_LON NADI_CAT NADI_WIND NADI_PRES WELLINGTON_LAT WELLINGTON_LON WELLINGTON_WIND WELLINGTON_PRES DS824_LAT DS824_LON DS824_STAGE DS824_WIND DS824_PRES TD9636_LAT TD9636_LON TD9636_STAGE TD9636_WIND TD9636_PRES TD9635_LAT TD9635_LON TD9635_WIND TD9635_PRES TD9635_ROCI NEUMANN_LAT NEUMANN_LON NEUMANN_CLASS NEUMANN_WIND NEUMANN_PRES MLC_LAT MLC_LON MLC_CLASS MLC_WIND MLC_PRES USA_GUST BOM_GUST BOM_GUST_PER REUNION_GUST REUNION_GUST_PER USA_SEAHGT USA_SEARAD_NE USA_SEARAD_SE USA_SEARAD_SW USA_SEARAD_NW STORM_SPEED STORM_DIR
1982274N13265 1982 84 EP MM ROSA 1982-09-30 18:00:00 TS 12.5000 -95.1000 30 hurdat_epa main 377 371 O_________O___ hurdat_epa EP171982 12.5000 -95.1000 TD 30 -1 12.5000 -95.1000 1 30 5 281
1982274N13265 1982 84 EP MM ROSA 1982-09-30 21:00:00 TS 12.5503 -95.3600 main 357 352 P_________P___ EP171982 12.5501 -95.3625 TD 32 -1 12.5509 -95.3525 1 32 5 282
1982274N13265 1982 84 EP MM ROSA 1982-10-01 00:00:00 TS 12.6000 -95.6000 35 hurdat_epa main 352 346 O_________O___ hurdat_epa EP171982 12.6000 -95.6000 TS 35 0 12.6000 -95.6000 2 35 5 283
1982274N13265 1982 84 EP MM ROSA 1982-10-01 03:00:00 TS 12.6491 -95.8096 main 346 331 P_________P___ EP171982 12.6499 -95.8000 TS 35 0 12.6465 -95.8383 2 36 4 284
1982274N13265 1982 84 EP MM ROSA 1982-10-01 06:00:00 TS 12.6983 -96.0168 35 hurdat_epa main 331 327 O_________P___ hurdat_epa EP171982 12.7000 -96.0000 TS 35 0 12.6931 -96.0671 2 37 5 283
1982274N13265 1982 84 EP MM ROSA 1982-10-01 09:00:00 TS 12.7483 -96.2594 main 326 313 P_________P___ EP171982 12.7500 -96.2500 TS 37 0 12.7431 -96.2874 2 38 5 282
1982274N13265 1982 84 EP MM ROSA 1982-10-01 12:00:00 TS 12.8000 -96.5000 40 hurdat_epa main 313 313 O_________O___ hurdat_epa EP171982 12.8000 -96.5000 TS 40 0 12.8000 -96.5000 2 40 4 283
1982274N13265 1982 84 EP MM ROSA 1982-10-01 15:00:00 TS 12.8478 -96.7054 main 313 302 P_________P___ EP171982 12.8425 -96.7075 TS 40 0 12.8636 -96.6991 2 40 4 286
1982274N13265 1982 84 EP MM ROSA 1982-10-01 18:00:00 TS 12.9087 -96.8982 40 hurdat_epa main 304 294 O_________P___ hurdat_epa EP171982 12.9000 -96.9000 TS 40 0 12.9348 -96.8926 2 40 4 292
1982274N13265 1982 84 EP MM ROSA 1982-10-01 21:00:00 TS 12.9978 -97.0918 main 296 287 P_________P___ EP171982 12.9925 -97.0925 TS 40 0 13.0136 -97.0898 2 40 4 296
1982274N13265 1982 84 EP MM ROSA 1982-10-02 00:00:00 TS 13.1000 -97.3000 40 hurdat_epa main 289 282 O_________O___ hurdat_epa EP171982 13.1000 -97.3000 TS 40 0 13.1000 -97.3000 2 40 5 294
1982274N13265 1982 84 EP MM ROSA 1982-10-02 03:00:00 TS 13.1972 -97.5438 main 285 283 P_________P___ EP171982 13.2000 -97.5425 TS 40 0 13.1888 -97.5478 2 40 5 292
1982274N13265 1982 84 EP MM ROSA 1982-10-02 06:00:00 TS 13.2963 -97.8019 40 hurdat_epa main 288 283 O_________P___ hurdat_epa EP171982 13.3000 -97.8000 TS 40 0 13.2851 -97.8075 2 40 5 292
1982274N13265 1982 84 EP MM ROSA 1982-10-02 09:00:00 TS 13.3972 -98.0590 main 292 283 P_________P___ EP171982 13.4000 -98.0575 TS 40 0 13.3888 -98.0634 2 40 5 293
1982274N13265 1982 84 EP MM ROSA 1982-10-02 12:00:00 TS 13.5000 -98.3000 40 hurdat_epa main 284 276 O_________O___ hurdat_epa EP171982 13.5000 -98.3000 TS 40 0 13.5000 -98.3000 2 40 5 295
1982274N13265 1982 84 EP MM ROSA 1982-10-02 15:00:00 TS 13.5988 -98.5115 main 279 271 P_________P___ EP171982 13.5925 -98.5150 TS 42 0 13.6177 -98.5007 2 41 4 299
1982274N13265 1982 84 EP MM ROSA 1982-10-02 18:00:00 TS 13.7106 -98.6950 45 hurdat_epa main 275 264 O_________P___ hurdat_epa EP171982 13.7000 -98.7000 TS 45 0 13.7424 -98.6801 2 42 4 307
1982274N13265 1982 84 EP MM ROSA 1982-10-02 21:00:00 TS 13.8496 -98.8486 main 268 258 P_________P___ EP171982 13.8425 -98.8500 TS 45 0 13.8709 -98.8444 2 43 4 314
1982274N13265 1982 84 EP MM ROSA 1982-10-03 00:00:00 TS 14.0000 -99.0000 45 hurdat_epa main 258 252 O_________O___ hurdat_epa EP171982 14.0000 -99.0000 TS 45 0 14.0000 -99.0000 2 45 5 312
1982274N13265 1982 84 EP MM ROSA 1982-10-03 03:00:00 TS 14.1484 -99.1939 main 254 236 P_________P___ EP171982 14.1575 -99.2075 TS 42 0 14.1209 -99.1532 2 42 5 308
1982274N13265 1982 84 EP MM ROSA 1982-10-03 06:00:00 TS 14.2856 -99.3750 40 hurdat_epa main 239 233 O_________P___ hurdat_epa EP171982 14.3000 -99.4000 TS 40 0 14.2424 -99.3002 2 40 4 310
1982274N13265 1982 84 EP MM ROSA 1982-10-03 09:00:00 TS 14.3919 -99.4924 main 233 228 P_________P___ EP171982 14.4000 -99.5076 TS 37 0 14.3677 -99.4470 2 37 3 315
1982274N13265 1982 84 EP MM ROSA 1982-10-03 12:00:00 TS 14.5000 -99.6000 35 hurdat_epa main 228 223 O_________O___ hurdat_epa EP171982 14.5000 -99.6000 TS 35 0 14.5000 -99.6000 2 35 3 316
1982274N13265 1982 84 EP MM ROSA 1982-10-03 15:00:00 TS 14.6415 -99.7412 main 223 213 P_________P___ EP171982 14.6425 -99.7350 TS 32 -1 14.6387 -99.7598 2 33 4 315
1982274N13265 1982 84 EP MM ROSA 1982-10-03 18:00:00 TS 14.7962 -99.9069 30 hurdat_epa main 213 204 O_________P___ hurdat_epa EP171982 14.8000 -99.9000 TD 30 -1 14.7849 -99.9277 2 32 5 312
1982274N13265 1982 84 EP MM ROSA 1982-10-03 21:00:00 TS 14.9472 -100.096 main 205 186 P_________P___ EP171982 14.9500 -100.093 TD 30 -1 14.9387 -100.107 2 31 5 309
1982274N13265 1982 84 EP MM ROSA 1982-10-04 00:00:00 TS 15.1000 -100.300 30 hurdat_epa main 190 183 O_________O___ hurdat_epa EP171982 15.1000 -100.300 TD 30 -1 15.1000 -100.300 1 30 5 308
1982274N13265 1982 84 EP MM ROSA 1982-10-04 03:00:00 TS 15.2488 -100.497 main 188 174 P_________P___ EP171982 15.2425 -100.493 TD 30 -1 15.2678 -100.511 1 28 5 308
1982274N13265 1982 84 EP MM ROSA 1982-10-04 06:00:00 TS 15.4106 -100.709 30 hurdat_epa main 180 173 O_________P___ hurdat_epa EP171982 15.4000 -100.700 TD 30 -1 15.4425 -100.735 1 27 6 308
1982274N13265 1982 84 EP MM ROSA 1982-10-04 09:00:00 TS 15.5996 -100.954 main 176 158 P_________P___ EP171982 15.5925 -100.950 TD 27 -1 15.6209 -100.967 1 26 6 309
1982274N13265 1982 84 EP MM ROSA 1982-10-04 12:00:00 TS 15.8000 -101.200 25 hurdat_epa main 162 148 O_________O___ hurdat_epa EP171982 15.8000 -101.200 TD 25 -1 15.8000 -101.200 1 25 6 313
1982274N13265 1982 84 EP MM ROSA 1982-10-04 15:00:00 TS 15.9983 -101.404 main 148 134 P_________P___ EP171982 16.0074 -101.400 TD 25 -1 15.9708 -101.417 1 25 6 314
1982274N13265 1982 84 EP MM ROSA 1982-10-04 18:00:00 TS 16.1856 -101.609 25 hurdat_epa main 134 128 O_________P___ hurdat_epa EP171982 16.2000 -101.600 TD 25 -1 16.1423 -101.635 1 25 5 309
1982274N13265 1982 84 EP MM ROSA 1982-10-04 21:00:00 TS 16.3419 -101.842 main 134 131 P_________P___ EP171982 16.3500 -101.835 TD 25 -1 16.3177 -101.861 1 25 6 304
1982274N13265 1982 84 EP MM ROSA 1982-10-05 00:00:00 TS 16.5000 -102.100 25 hurdat_epa main 138 128 O_________O___ hurdat_epa EP171982 16.5000 -102.100 TD 25 -1 16.5000 -102.100 1 25 6 304
1982274N13265 1982 84 EP MM ROSA 1982-10-05 03:00:00 TS 16.6946 -102.392 main 134 116 P_________P___ EP171982 16.6925 -102.400 TD 25 -1 16.7010 -102.369 1 25 7 306
1982274N13265 1982 84 EP MM ROSA 1982-10-05 06:00:00 TS 16.9019 -102.687 25 hurdat_epa main 119 105 O_________P___ hurdat_epa EP171982 16.9000 -102.700 TD 25 -1 16.9076 -102.650 1 25 7 308
1982274N13265 1982 84 EP MM ROSA 1982-10-05 09:00:00 TS 17.1082 -102.951 main 109 91 P_________P___ EP171982 17.1074 -102.958 TD 25 -1 17.1104 -102.931 1 25 6 309
1982274N13265 1982 84 EP MM ROSA 1982-10-05 12:00:00 TS 17.3000 -103.200 25 hurdat_epa main 94 81 O_________O___ hurdat_epa EP171982 17.3000 -103.200 TD 25 -1 17.3000 -103.200 1 25 6 306
1982274N13265 1982 84 EP MM ROSA 1982-10-05 15:00:00 TS 17.4612 -103.454 main 84 79 P_________P___ EP171982 17.4575 -103.458 TD 25 -1 17.4724 -103.444 1 25 6 303
1982274N13265 1982 84 EP MM ROSA 1982-10-05 18:00:00 TS 17.6075 -103.693 25 hurdat_epa main 81 70 O_________P___ hurdat_epa EP171982 17.6000 -103.700 TD 25 -1 17.6298 -103.673 1 25 5 305
1982274N13265 1982 84 EP MM ROSA 1982-10-05 21:00:00 TS 17.7612 -103.903 main 70 69 P_________P___ EP171982 17.7575 -103.908 TD 25 -1 17.7724 -103.890 1 25 5 307
1982274N13265 1982 84 EP MM ROSA 1982-10-06 00:00:00 TS 17.9000 -104.100 25 hurdat_epa main 77 77 O_________O___ hurdat_epa EP171982 17.9000 -104.100 TD 25 -1 17.9000 -104.100 1 25 5 303
1982274N13265 1982 84 EP MM ROSA 1982-10-06 03:00:00 TS 18.0062 -104.302 main 90 90 P_________P___ EP171982 18.0075 -104.300 TD 25 -1 18.0025 -104.307 1 25 4 297
1982274N13265 1982 84 EP MM ROSA 1982-10-06 06:00:00 TS 18.0983 -104.502 25 hurdat_epa main 102 94 O_________P___ hurdat_epa EP171982 18.1000 -104.500 TD 25 -1 18.0931 -104.507 1 25 4 296
1982274N13265 1982 84 EP MM ROSA 1982-10-06 09:00:00 TS 18.1911 -104.701 main 98 94 P_________P___ EP171982 18.1925 -104.700 TD 25 -1 18.1871 -104.704 1 25 4 298
1982274N13265 1982 84 EP MM ROSA 1982-10-06 12:00:00 TS 18.3000 -104.900 25 hurdat_epa main 100 91 O_________O___ hurdat_epa EP171982 18.3000 -104.900 TD 25 -1 18.3000 -104.900 1 25 5 303
1982274N13265 1982 84 EP MM ROSA 1982-10-06 15:00:00 TS 18.4404 -105.100 main 94 79 P_________P___ EP171982 18.4400 -105.100 TD 25 -1 18.4415 -105.099 1 25 5 308
1982274N13265 1982 84 EP MM ROSA 1982-10-06 18:00:00 TS 18.6000 -105.300 25 hurdat_epa main 85 O_________O___ hurdat_epa EP171982 18.6000 -105.300 TD 25 -1 18.6000 -105.300 1 25 5 310

About IBTrACS Database

This database is a web-friendly format of International Best Track Archive for Climate Stewardship (IBTrACS), a global best track data archive curated by NOAA dating back to 1842.

Updated: 2021-12-08